Pilot Point, Alaska
Current Conditions -  °F | °C
As of 5:56 AM on Thursday 23 Oct 2014 (Local Time) from PAPN Reporting Station
Clear Clear  
Wind Chill: 27°   Ceiling: Unl
Heat Index: 27°   Visibility: 10mi
Dew Point: 23°   Wind: 0mph
Humidity: 84%   Direction: NA
Pressure: 29.94"   Gusts: NA
Location:  57.56°N, 157.58°W
Report Text: PAPN 231356Z AUTO 00000KT 10SM CLR M03/M05 A2994 RMK AO2 PWINO TSNO T10271050 SLP140 $
Loading
Personal Weather Stations






























Interactive Weather Map
Tropical Storm Tracking
New forecast layout! Learn more

10-Day Weather Forecast

Advertisements
Track Severe Weather on mobile